Time;durP1;ratioP1;P1;durP2;ratioP2;P2;SDS_P1;SDS_P2;PMS_P1;PMS_P2;Temp;Humidity;BMP_temperature;BMP_pressure;BME280_temperature;BME280_humidity;BME280_pressure;Samples;Min_cycle;Max_cycle;Signal;HPM_P1;HPM_P2
2021/10/30 00:00:57;;;;;;;16.77;12.68;;;4.90;99.90;;;;;;1879920;76;21143;-75
2021/10/30 00:03:23;;;;;;;20.45;13.32;;;4.90;99.90;;;;;;1877647;76;21177;-74
2021/10/30 00:05:50;;;;;;;18.95;13.25;;;4.90;99.90;;;;;;1874242;76;21096;-75
2021/10/30 00:08:16;;;;;;;16.62;13.18;;;4.80;99.90;;;;;;1876198;76;21142;-75
2021/10/30 00:10:42;;;;;;;17.25;12.75;;;4.80;99.90;;;;;;1874132;76;21169;-76
2021/10/30 00:13:08;;;;;;;18.87;13.20;;;4.80;99.90;;;;;;1866401;75;21153;-75
2021/10/30 00:15:34;;;;;;;20.48;14.15;;;4.80;99.90;;;;;;1861857;76;21079;-75
2021/10/30 00:18:01;;;;;;;18.60;12.40;;;4.70;99.90;;;;;;1877866;76;21084;-74
2021/10/30 00:20:27;;;;;;;19.65;13.20;;;4.70;99.90;;;;;;1868594;76;21154;-76
2021/10/30 00:22:53;;;;;;;19.35;12.82;;;4.70;99.90;;;;;;1873158;76;21087;-75
2021/10/30 00:25:20;;;;;;;20.02;13.10;;;4.60;99.90;;;;;;1873196;76;21159;-75
2021/10/30 00:27:46;;;;;;;21.85;12.95;;;4.70;99.90;;;;;;1876979;76;21065;-74
2021/10/30 00:30:12;;;;;;;18.40;12.47;;;4.60;99.90;;;;;;1873952;75;21076;-75
2021/10/30 00:32:38;;;;;;;21.00;12.73;;;4.60;99.90;;;;;;1868303;75;21087;-74
2021/10/30 00:35:04;;;;;;;19.10;12.82;;;4.60;99.90;;;;;;1882359;75;21076;-75
2021/10/30 00:37:30;;;;;;;18.73;13.20;;;4.60;99.90;;;;;;1805052;77;21177;-74
2021/10/30 00:39:56;;;;;;;22.62;13.13;;;4.50;99.90;;;;;;1847930;76;21077;-75
2021/10/30 00:42:22;;;;;;;15.13;11.73;;;4.50;99.90;;;;;;1846008;76;21089;-75
2021/10/30 00:44:49;;;;;;;20.48;13.32;;;4.50;99.90;;;;;;1835027;77;21174;-75
2021/10/30 00:47:15;;;;;;;25.23;14.15;;;4.50;99.90;;;;;;1837994;77;21516;-74
2021/10/30 00:49:41;;;;;;;19.87;13.32;;;4.40;99.90;;;;;;1832328;77;21558;-74
2021/10/30 00:52:07;;;;;;;21.77;13.88;;;4.50;99.90;;;;;;1838982;76;21562;-74
2021/10/30 00:54:36;;;;;;;16.80;12.78;;;4.50;99.90;;;;;;1828054;77;21488;-75
2021/10/30 00:57:01;;;;;;;17.62;12.98;;;4.40;99.90;;;;;;1827023;76;21205;-75
2021/10/30 00:59:27;;;;;;;22.73;12.68;;;4.40;99.90;;;;;;1835355;76;21104;-74
2021/10/30 01:01:53;;;;;;;16.85;12.68;;;4.40;99.90;;;;;;1831339;77;21080;-74
2021/10/30 01:04:20;;;;;;;19.35;12.82;;;4.40;99.90;;;;;;1842125;76;21169;-74
2021/10/30 01:06:47;;;;;;;18.45;12.43;;;4.30;99.90;;;;;;1839193;77;21100;-74
2021/10/30 01:09:13;;;;;;;20.43;12.58;;;4.30;99.90;;;;;;1817889;77;21100;-75
2021/10/30 01:11:40;;;;;;;18.77;12.05;;;4.30;99.90;;;;;;1828437;77;21100;-74
2021/10/30 01:14:06;;;;;;;19.30;12.25;;;4.40;99.90;;;;;;1824928;76;21300;-75
2021/10/30 01:16:32;;;;;;;20.70;12.93;;;4.40;99.90;;;;;;1825696;77;21096;-75
2021/10/30 01:19:00;;;;;;;18.20;12.35;;;4.40;99.90;;;;;;1842633;77;21173;-74
2021/10/30 01:21:26;;;;;;;22.77;12.30;;;4.30;99.90;;;;;;1829366;77;21210;-75
2021/10/30 01:23:53;;;;;;;15.85;11.80;;;4.30;99.90;;;;;;1825144;77;21212;-75
2021/10/30 01:26:19;;;;;;;20.88;12.25;;;4.30;99.90;;;;;;1839852;77;21536;-75
2021/10/30 01:28:45;;;;;;;15.03;11.38;;;4.20;99.90;;;;;;1845137;76;21065;-74
2021/10/30 01:31:12;;;;;;;20.85;12.65;;;4.20;99.90;;;;;;1826013;77;21092;-76
2021/10/30 01:33:39;;;;;;;20.65;12.30;;;4.20;99.90;;;;;;1831717;77;21251;-75
2021/10/30 01:36:06;;;;;;;15.53;12.15;;;4.20;99.90;;;;;;1832369;77;21170;-74
2021/10/30 01:38:32;;;;;;;18.42;12.58;;;4.10;99.90;;;;;;1812510;77;21537;-74
2021/10/30 01:40:58;;;;;;;17.10;12.07;;;4.20;99.90;;;;;;1836975;77;21586;-75
2021/10/30 01:43:24;;;;;;;18.35;12.07;;;4.10;99.90;;;;;;1816002;77;21080;-75
2021/10/30 01:45:51;;;;;;;14.93;11.00;;;4.10;99.90;;;;;;1831284;77;21103;-75
2021/10/30 01:48:17;;;;;;;17.15;11.53;;;4.10;99.90;;;;;;1833519;76;21084;-75
2021/10/30 01:50:43;;;;;;;16.02;12.25;;;4.00;99.90;;;;;;1842262;75;21103;-75
2021/10/30 01:53:09;;;;;;;16.40;11.83;;;4.00;99.90;;;;;;1823400;77;21168;-75
2021/10/30 01:55:35;;;;;;;15.43;11.97;;;4.00;99.90;;;;;;1816117;77;21175;-75
2021/10/30 01:58:02;;;;;;;17.95;11.93;;;4.10;99.90;;;;;;1835864;76;21084;-75
2021/10/30 02:00:28;;;;;;;18.55;11.60;;;4.10;99.90;;;;;;1838465;76;21104;-75
2021/10/30 02:02:54;;;;;;;21.07;11.55;;;4.00;99.90;;;;;;1834712;77;21499;-75
2021/10/30 02:05:20;;;;;;;16.60;11.15;;;4.00;99.90;;;;;;1840488;77;21536;-75
2021/10/30 02:07:46;;;;;;;19.42;12.53;;;4.00;99.90;;;;;;1808486;77;21456;-75
2021/10/30 02:10:12;;;;;;;17.27;12.58;;;3.90;99.90;;;;;;1837485;76;21577;-74
2021/10/30 02:12:38;;;;;;;18.85;12.53;;;3.90;99.90;;;;;;1830636;77;21146;-74
2021/10/30 02:15:04;;;;;;;16.15;12.43;;;3.80;99.90;;;;;;1841497;76;21193;-75
2021/10/30 02:17:31;;;;;;;16.90;12.80;;;3.80;99.90;;;;;;1828737;77;21084;-75
2021/10/30 02:19:57;;;;;;;16.65;12.35;;;3.80;99.90;;;;;;1819117;77;21161;-75
2021/10/30 02:22:24;;;;;;;16.42;12.78;;;3.90;99.90;;;;;;1827793;77;21096;-75
2021/10/30 02:24:50;;;;;;;16.40;12.63;;;3.90;99.90;;;;;;1829273;77;21240;-74
2021/10/30 02:27:16;;;;;;;18.42;12.53;;;4.00;99.90;;;;;;1878702;74;21160;-73
2021/10/30 02:29:42;;;;;;;15.80;12.30;;;3.90;99.90;;;;;;1861051;75;21473;-75
2021/10/30 02:32:08;;;;;;;16.82;11.65;;;4.00;99.90;;;;;;1868098;75;21454;-74
2021/10/30 02:34:34;;;;;;;15.15;11.97;;;3.90;99.90;;;;;;1873314;75;21498;-75
2021/10/30 02:37:00;;;;;;;16.95;10.90;;;3.90;99.90;;;;;;1869302;75;21582;-75
2021/10/30 02:39:26;;;;;;;16.23;11.45;;;3.90;99.90;;;;;;1879886;76;21087;-75
2021/10/30 02:41:52;;;;;;;22.35;12.75;;;3.80;99.90;;;;;;1857259;75;21084;-77
2021/10/30 02:44:19;;;;;;;16.65;11.75;;;3.80;99.90;;;;;;1877801;75;21146;-76
2021/10/30 02:46:45;;;;;;;18.30;13.08;;;3.80;99.90;;;;;;1863885;75;21088;-74
2021/10/30 02:49:11;;;;;;;21.52;11.68;;;3.70;99.90;;;;;;1871344;75;21155;-74
2021/10/30 02:51:37;;;;;;;21.00;11.90;;;3.70;99.90;;;;;;1880335;75;21075;-75
2021/10/30 02:54:03;;;;;;;17.55;12.37;;;3.70;99.90;;;;;;1872210;75;21155;-74
2021/10/30 02:56:29;;;;;;;16.90;12.28;;;3.70;99.90;;;;;;1871025;75;21219;-76
2021/10/30 02:58:55;;;;;;;18.65;11.97;;;3.70;99.90;;;;;;1875809;74;21085;-74
2021/10/30 03:01:21;;;;;;;16.02;11.85;;;3.60;99.90;;;;;;1886422;74;21080;-75
2021/10/30 03:03:48;;;;;;;14.47;11.40;;;3.70;99.90;;;;;;1855745;75;21494;-74
2021/10/30 03:06:15;;;;;;;16.02;11.75;;;3.70;99.90;;;;;;1865959;75;21509;-74
2021/10/30 03:08:41;;;;;;;16.82;11.48;;;3.60;99.90;;;;;;1866424;75;21083;-75
2021/10/30 03:11:14;;;;;;;17.40;11.57;;;3.60;99.90;;;;;;1873939;76;21126;-74
2021/10/30 03:13:42;;;;;;;17.15;11.18;;;3.60;99.90;;;;;;1877053;75;21496;-75
2021/10/30 03:16:08;;;;;;;17.87;12.13;;;3.70;99.90;;;;;;1863046;75;21106;-75
2021/10/30 03:18:34;;;;;;;16.05;11.53;;;3.60;99.90;;;;;;1868912;75;21091;-75
2021/10/30 03:21:00;;;;;;;14.10;11.95;;;3.60;99.90;;;;;;1864546;76;21158;-75
2021/10/30 03:23:27;;;;;;;15.95;11.35;;;3.50;99.90;;;;;;1876970;75;21092;-76
2021/10/30 03:25:53;;;;;;;15.55;11.53;;;3.50;99.90;;;;;;1866289;76;21139;-75
2021/10/30 03:28:19;;;;;;;15.90;11.15;;;3.50;99.90;;;;;;1853155;76;21485;-75
2021/10/30 03:30:45;;;;;;;15.00;11.25;;;3.40;99.90;;;;;;1841220;77;21495;-76
2021/10/30 03:33:11;;;;;;;15.15;11.35;;;3.40;99.90;;;;;;1826357;77;21080;-75
2021/10/30 03:35:38;;;;;;;15.35;11.33;;;3.40;99.90;;;;;;1816964;77;21125;-76
2021/10/30 03:38:04;;;;;;;15.43;11.43;;;3.30;99.90;;;;;;1837223;77;21178;-75
2021/10/30 03:40:30;;;;;;;16.57;11.75;;;3.30;99.90;;;;;;1852114;76;21583;-75
2021/10/30 03:42:56;;;;;;;20.70;10.98;;;3.40;99.90;;;;;;1844492;77;21570;-75
2021/10/30 03:45:22;;;;;;;14.95;11.57;;;3.30;99.90;;;;;;1820427;76;21594;-74
2021/10/30 03:47:49;;;;;;;16.85;11.93;;;3.30;99.90;;;;;;1835547;77;21107;-75
2021/10/30 03:50:15;;;;;;;16.90;12.18;;;3.20;99.90;;;;;;1822951;76;21216;-75
2021/10/30 03:52:41;;;;;;;15.32;11.05;;;3.10;99.90;;;;;;1815618;77;21063;-75
2021/10/30 03:55:07;;;;;;;13.68;11.20;;;3.10;99.90;;;;;;1845518;76;21212;-75
2021/10/30 03:57:33;;;;;;;14.63;10.82;;;3.10;99.90;;;;;;1852212;76;21587;-75
2021/10/30 03:59:59;;;;;;;20.27;12.03;;;3.20;99.90;;;;;;1843526;76;21572;-76
2021/10/30 04:02:25;;;;;;;17.23;11.22;;;3.30;99.90;;;;;;1847064;76;21556;-75
2021/10/30 04:04:51;;;;;;;21.87;12.75;;;3.20;99.90;;;;;;1831644;76;21112;-75
2021/10/30 04:07:18;;;;;;;24.05;12.58;;;3.10;99.90;;;;;;1834247;76;21066;-74
2021/10/30 04:09:44;;;;;;;17.55;11.90;;;3.00;99.90;;;;;;1850922;76;21168;-75
2021/10/30 04:12:10;;;;;;;23.50;11.88;;;3.10;99.90;;;;;;1850140;76;21097;-74
2021/10/30 04:14:36;;;;;;;19.57;12.10;;;3.10;99.90;;;;;;1829604;76;21199;-74
2021/10/30 04:17:02;;;;;;;17.10;12.47;;;3.10;99.90;;;;;;1824459;76;21100;-75
2021/10/30 04:19:28;;;;;;;15.93;11.08;;;3.10;99.90;;;;;;1828435;76;21054;-74
2021/10/30 04:21:54;;;;;;;15.63;12.33;;;3.10;99.90;;;;;;1839675;76;21193;-75
2021/10/30 04:24:21;;;;;;;12.98;10.60;;;3.10;99.90;;;;;;1839298;76;21077;-76
2021/10/30 04:26:47;;;;;;;16.23;10.48;;;3.00;99.90;;;;;;1847615;76;21494;-76
2021/10/30 04:29:13;;;;;;;16.73;10.75;;;3.10;99.90;;;;;;1835960;76;21164;-76
2021/10/30 04:31:39;;;;;;;15.38;10.55;;;3.10;99.90;;;;;;1827916;76;21502;-75
2021/10/30 04:34:07;;;;;;;14.95;10.78;;;3.10;99.90;;;;;;1842599;76;21144;-75
2021/10/30 04:36:35;;;;;;;17.82;11.43;;;3.00;99.90;;;;;;1846543;76;21271;-75
2021/10/30 04:39:01;;;;;;;16.42;11.57;;;3.00;99.90;;;;;;1844300;76;21102;-75
2021/10/30 04:41:27;;;;;;;17.27;10.82;;;3.00;99.90;;;;;;1849588;76;21093;-76
2021/10/30 04:43:55;;;;;;;14.25;11.35;;;3.00;99.90;;;;;;1848127;76;21478;-75
2021/10/30 04:46:21;;;;;;;19.00;10.60;;;2.90;99.90;;;;;;1852768;76;21173;-75
2021/10/30 04:48:47;;;;;;;19.48;11.78;;;2.90;99.90;;;;;;1846587;76;21063;-75
2021/10/30 04:51:13;;;;;;;14.60;10.45;;;2.90;99.90;;;;;;1846747;76;21089;-74
2021/10/30 04:53:39;;;;;;;14.50;10.20;;;3.00;99.90;;;;;;1834507;76;21227;-75
2021/10/30 04:56:05;;;;;;;15.98;10.95;;;3.00;99.90;;;;;;1845100;76;21095;-75
2021/10/30 04:58:33;;;;;;;16.82;10.85;;;3.00;99.90;;;;;;1845627;76;21463;-75
2021/10/30 05:01:00;;;;;;;14.20;11.30;;;2.90;99.90;;;;;;1849621;76;21322;-74
2021/10/30 05:03:26;;;;;;;14.60;10.65;;;3.00;99.90;;;;;;1827898;76;21163;-75
2021/10/30 05:05:52;;;;;;;16.55;10.50;;;2.90;99.90;;;;;;1830359;76;21151;-74
2021/10/30 05:08:19;;;;;;;14.87;10.98;;;2.90;99.90;;;;;;1847365;76;21086;-75
2021/10/30 05:10:45;;;;;;;22.07;11.45;;;2.80;99.90;;;;;;1845404;76;21094;-75
2021/10/30 05:13:11;;;;;;;20.35;11.05;;;2.80;99.90;;;;;;1845674;77;21063;-75
2021/10/30 05:15:37;;;;;;;17.40;10.98;;;2.80;99.90;;;;;;1836211;76;21164;-75
2021/10/30 05:18:03;;;;;;;16.45;10.88;;;2.80;99.90;;;;;;1846295;76;21098;-72
2021/10/30 05:20:29;;;;;;;16.80;11.48;;;2.70;99.90;;;;;;1846000;76;21086;-76
2021/10/30 05:22:55;;;;;;;15.00;11.20;;;2.70;99.90;;;;;;1853132;76;21133;-76
2021/10/30 05:25:22;;;;;;;17.20;11.60;;;2.70;99.90;;;;;;1848437;76;21609;-75
2021/10/30 05:27:48;;;;;;;13.58;11.22;;;2.70;99.90;;;;;;1835911;76;21491;-75
2021/10/30 05:30:14;;;;;;;16.17;10.50;;;2.70;99.90;;;;;;1835091;76;21500;-76
2021/10/30 05:32:40;;;;;;;16.05;10.65;;;2.70;99.90;;;;;;1831620;76;21487;-74
2021/10/30 05:35:06;;;;;;;15.68;11.65;;;2.70;99.90;;;;;;1843604;76;21055;-76
2021/10/30 05:37:32;;;;;;;15.55;11.15;;;2.60;99.90;;;;;;1829014;76;21149;-75
2021/10/30 05:39:59;;;;;;;15.13;11.43;;;2.60;99.90;;;;;;1841989;76;21159;-74
2021/10/30 05:42:25;;;;;;;15.40;10.98;;;2.70;99.90;;;;;;1850692;76;21169;-75
2021/10/30 05:44:51;;;;;;;18.85;11.48;;;2.70;99.90;;;;;;1839244;76;21093;-75
2021/10/30 05:47:18;;;;;;;12.18;10.32;;;2.70;99.90;;;;;;1832582;76;21473;-76
2021/10/30 05:49:44;;;;;;;21.17;10.80;;;2.70;99.90;;;;;;1841051;76;21162;-75
2021/10/30 05:52:10;;;;;;;13.80;11.10;;;2.70;99.90;;;;;;1847821;76;21090;-75
2021/10/30 05:54:38;;;;;;;14.70;11.33;;;2.80;99.90;;;;;;1837427;76;21233;-75
2021/10/30 05:57:04;;;;;;;16.77;11.93;;;2.80;99.90;;;;;;1831724;76;21160;-75
2021/10/30 05:59:30;;;;;;;17.37;11.60;;;2.80;99.90;;;;;;1846366;76;21141;-75
2021/10/30 06:01:57;;;;;;;14.98;11.50;;;2.80;99.90;;;;;;1844678;76;21521;-77
2021/10/30 06:04:23;;;;;;;14.63;10.93;;;2.70;99.90;;;;;;1844407;76;21530;-75
2021/10/30 06:06:49;;;;;;;15.15;11.05;;;2.70;99.90;;;;;;1840198;76;21451;-76
2021/10/30 06:09:15;;;;;;;23.65;11.08;;;2.80;99.90;;;;;;1836127;76;21159;-75
2021/10/30 06:11:42;;;;;;;23.60;11.20;;;2.70;99.90;;;;;;1847522;76;21156;-74
2021/10/30 06:14:10;;;;;;;15.23;11.00;;;2.80;99.90;;;;;;1835244;76;21177;-75
2021/10/30 06:16:36;;;;;;;14.98;10.63;;;2.70;99.90;;;;;;1851433;76;21521;-75
2021/10/30 06:19:02;;;;;;;15.95;10.70;;;2.80;99.90;;;;;;1831306;76;21296;-74
2021/10/30 06:21:28;;;;;;;17.25;10.80;;;2.80;99.90;;;;;;1839457;76;21086;-75
2021/10/30 06:23:58;;;;;;;18.95;11.68;;;2.90;99.90;;;;;;1842503;76;21155;-76
2021/10/30 06:26:22;;;;;;;15.63;11.50;;;2.80;99.90;;;;;;1833486;76;21184;-75
2021/10/30 06:28:49;;;;;;;16.55;10.63;;;2.80;99.90;;;;;;1843171;76;21085;-74
2021/10/30 06:31:15;;;;;;;18.32;11.90;;;2.80;99.90;;;;;;1845253;76;21093;-74
2021/10/30 06:33:41;;;;;;;20.02;12.07;;;2.80;99.90;;;;;;1832036;76;21095;-76
2021/10/30 06:36:08;;;;;;;19.02;11.90;;;2.80;99.90;;;;;;1843031;76;21063;-77
2021/10/30 06:38:35;;;;;;;15.80;11.38;;;2.80;99.90;;;;;;1838976;76;21087;-77
2021/10/30 06:41:05;;;;;;;17.20;10.70;;;2.80;99.90;;;;;;1853262;76;21085;-74
2021/10/30 06:43:29;;;;;;;18.02;10.78;;;2.90;99.90;;;;;;1840153;76;21081;-77
2021/10/30 06:45:55;;;;;;;16.65;11.63;;;2.90;99.90;;;;;;1834964;76;21107;-74
2021/10/30 06:48:21;;;;;;;15.15;10.88;;;2.80;99.90;;;;;;1827233;76;21057;-77
2021/10/30 06:50:48;;;;;;;14.95;11.22;;;2.70;99.90;;;;;;1828507;76;21054;-76
2021/10/30 06:53:14;;;;;;;16.07;11.10;;;2.80;99.90;;;;;;1825468;76;21067;-77
2021/10/30 06:55:40;;;;;;;25.60;11.33;;;2.90;99.90;;;;;;1842749;76;21082;-74
2021/10/30 06:58:06;;;;;;;15.48;11.57;;;3.00;99.90;;;;;;1846868;76;21085;-77
2021/10/30 07:00:32;;;;;;;17.55;11.22;;;3.20;99.90;;;;;;1847879;76;21129;-77
2021/10/30 07:02:58;;;;;;;16.00;10.82;;;3.30;99.90;;;;;;1848359;76;21144;-77
2021/10/30 07:05:26;;;;;;;15.40;10.82;;;3.30;99.90;;;;;;1837806;76;21081;-77
2021/10/30 07:07:52;;;;;;;16.90;10.48;;;3.40;99.90;;;;;;1849378;76;21117;-75
2021/10/30 07:10:18;;;;;;;15.72;10.70;;;3.50;99.90;;;;;;1838412;76;21082;-75
2021/10/30 07:12:44;;;;;;;13.45;9.73;;;3.60;99.90;;;;;;1848198;76;21083;-75
2021/10/30 07:15:11;;;;;;;13.70;10.15;;;3.70;99.90;;;;;;1839350;76;21152;-76
2021/10/30 07:17:37;;;;;;;15.03;10.15;;;3.90;99.90;;;;;;1842467;76;21081;-76
2021/10/30 07:20:03;;;;;;;14.10;9.70;;;4.00;99.90;;;;;;1852204;76;21164;-76
2021/10/30 07:22:29;;;;;;;15.10;10.98;;;4.20;99.90;;;;;;1843807;76;21090;-78
2021/10/30 07:24:55;;;;;;;14.90;10.00;;;4.30;99.90;;;;;;1839816;76;21058;-76
2021/10/30 07:27:21;;;;;;;14.65;10.10;;;4.50;99.90;;;;;;1844361;76;21449;-77
2021/10/30 07:29:48;;;;;;;18.87;10.08;;;4.60;99.90;;;;;;1824769;76;21159;-75
2021/10/30 07:32:14;;;;;;;17.05;10.80;;;4.90;99.90;;;;;;1828228;76;21098;-75
2021/10/30 07:34:41;;;;;;;14.18;10.78;;;5.00;99.90;;;;;;1850008;76;21620;-76
2021/10/30 07:37:07;;;;;;;17.62;11.40;;;5.20;99.90;;;;;;1836563;76;21559;-76
2021/10/30 07:39:34;;;;;;;15.00;10.88;;;5.30;99.90;;;;;;1833539;76;21510;-73
2021/10/30 07:42:01;;;;;;;13.93;9.88;;;5.50;99.90;;;;;;1843932;76;21144;-75
2021/10/30 07:44:27;;;;;;;14.15;9.53;;;5.70;99.90;;;;;;1809482;77;21141;-75
2021/10/30 07:46:54;;;;;;;11.83;9.75;;;5.80;99.90;;;;;;1847799;77;21084;-75
2021/10/30 07:49:21;;;;;;;13.65;10.00;;;5.90;99.90;;;;;;1825454;77;21109;-72
2021/10/30 07:51:47;;;;;;;12.95;9.85;;;6.00;99.90;;;;;;1803647;77;21152;-74
2021/10/30 07:54:13;;;;;;;13.40;9.48;;;6.20;99.90;;;;;;1827451;76;21281;-75
2021/10/30 07:56:39;;;;;;;10.00;8.43;;;6.30;99.90;;;;;;1837855;77;21312;-75
2021/10/30 07:59:05;;;;;;;11.65;8.85;;;6.40;99.90;;;;;;1821951;76;21107;-74
2021/10/30 08:01:31;;;;;;;11.35;8.38;;;6.50;99.90;;;;;;1809363;77;21091;-74
2021/10/30 08:03:57;;;;;;;10.85;8.83;;;6.70;99.90;;;;;;1876928;74;21159;-74
2021/10/30 08:06:23;;;;;;;12.18;9.08;;;6.70;99.90;;;;;;1866165;76;21057;-74
2021/10/30 08:08:50;;;;;;;17.37;9.28;;;6.60;99.90;;;;;;1877407;75;21076;-74
2021/10/30 08:11:16;;;;;;;11.43;8.83;;;6.60;99.90;;;;;;1884099;74;21141;-74
2021/10/30 08:13:42;;;;;;;13.55;9.00;;;6.70;99.90;;;;;;1878922;75;21161;-74
2021/10/30 08:16:08;;;;;;;15.28;9.33;;;6.90;99.90;;;;;;1875851;76;21207;-74
2021/10/30 08:18:34;;;;;;;12.35;8.63;;;6.80;99.90;;;;;;1867502;76;21063;-73
2021/10/30 08:21:00;;;;;;;12.10;8.48;;;7.00;99.90;;;;;;1859890;75;21086;-75
2021/10/30 08:23:26;;;;;;;16.17;9.15;;;7.30;99.90;;;;;;1845749;75;21089;-74
2021/10/30 08:25:52;;;;;;;12.73;8.53;;;7.40;99.90;;;;;;1865898;75;21157;-73
2021/10/30 08:28:19;;;;;;;13.65;8.70;;;7.70;99.90;;;;;;1871394;75;21080;-74
2021/10/30 08:30:45;;;;;;;16.70;8.78;;;7.90;99.90;;;;;;1879170;75;21625;-73
2021/10/30 08:33:11;;;;;;;13.25;8.80;;;7.70;99.90;;;;;;1877290;75;21156;-73
2021/10/30 08:35:37;;;;;;;10.98;8.15;;;7.80;99.90;;;;;;1877175;74;21090;-73
2021/10/30 08:38:08;;;;;;;11.35;8.48;;;7.90;99.90;;;;;;1874147;75;21079;-73
2021/10/30 08:40:31;;;;;;;10.32;7.85;;;8.30;99.90;;;;;;1857952;76;21175;-73
2021/10/30 08:42:57;;;;;;;9.93;7.67;;;8.40;99.90;;;;;;1870491;76;21070;-72
2021/10/30 08:45:23;;;;;;;12.43;8.28;;;8.60;99.90;;;;;;1869674;76;21166;-72
2021/10/30 08:47:49;;;;;;;12.45;8.53;;;8.70;99.90;;;;;;1865303;75;21088;-73
2021/10/30 08:50:16;;;;;;;11.57;8.80;;;8.80;99.90;;;;;;1882327;75;21080;-73
2021/10/30 08:52:42;;;;;;;12.20;8.75;;;8.50;99.90;;;;;;1834137;76;21171;-74
2021/10/30 08:55:08;;;;;;;10.35;8.00;;;8.40;99.90;;;;;;1867618;76;21173;-74
2021/10/30 08:57:35;;;;;;;13.10;7.55;;;8.50;99.90;;;;;;1865188;76;21469;-74
2021/10/30 09:00:01;;;;;;;9.93;8.18;;;8.70;99.90;;;;;;1874502;75;21584;-75
2021/10/30 09:02:27;;;;;;;9.78;8.08;;;9.00;99.90;;;;;;1865281;75;21557;-74
2021/10/30 09:04:53;;;;;;;11.48;8.43;;;9.20;99.90;;;;;;1854117;75;21513;-74
2021/10/30 09:07:19;;;;;;;11.97;8.80;;;9.30;99.90;;;;;;1871326;75;21080;-74
2021/10/30 09:09:45;;;;;;;8.80;7.70;;;9.80;99.90;;;;;;1875043;74;21061;-74
2021/10/30 09:12:12;;;;;;;8.85;7.37;;;10.20;99.90;;;;;;1874445;75;21077;-74
2021/10/30 09:14:38;;;;;;;9.68;8.00;;;10.20;99.90;;;;;;1866333;74;21157;-75
2021/10/30 09:17:04;;;;;;;14.40;8.48;;;10.00;99.90;;;;;;1863349;75;21155;-75
2021/10/30 09:19:30;;;;;;;10.63;8.33;;;9.80;99.90;;;;;;1875583;76;21084;-75
2021/10/30 09:21:56;;;;;;;13.28;8.48;;;9.40;99.90;;;;;;1880564;76;21080;-75
2021/10/30 09:24:23;;;;;;;14.07;8.83;;;9.30;99.90;;;;;;1878509;74;21053;-75
2021/10/30 09:26:49;;;;;;;10.43;8.75;;;9.20;99.90;;;;;;1863680;74;21219;-75
2021/10/30 09:29:16;;;;;;;11.15;8.30;;;9.20;99.90;;;;;;1874353;74;21158;-75
2021/10/30 09:31:42;;;;;;;15.10;8.93;;;9.20;99.90;;;;;;1870252;74;21081;-76
2021/10/30 09:34:08;;;;;;;12.23;8.83;;;9.20;99.90;;;;;;1864303;75;21130;-76
2021/10/30 09:36:35;;;;;;;14.35;8.65;;;9.20;99.90;;;;;;1866693;74;21081;-76
2021/10/30 09:39:01;;;;;;;14.15;9.40;;;9.20;99.90;;;;;;1877158;75;21507;-77
2021/10/30 09:41:27;;;;;;;15.45;9.50;;;9.10;99.90;;;;;;1874714;75;21492;-75
2021/10/30 09:43:53;;;;;;;10.40;9.40;;;9.30;99.90;;;;;;1867915;76;21085;-75
2021/10/30 09:46:19;;;;;;;13.18;8.65;;;9.50;99.90;;;;;;1859418;75;21080;-75
2021/10/30 09:48:46;;;;;;;12.25;9.13;;;9.40;99.90;;;;;;1873517;74;21500;-76
2021/10/30 09:51:12;;;;;;;18.55;9.33;;;9.40;99.90;;;;;;1870437;75;21152;-76
2021/10/30 09:53:43;;;;;;;16.57;10.35;;;9.60;99.90;;;;;;1862686;75;21134;-76
2021/10/30 09:56:08;;;;;;;14.20;9.50;;;9.60;99.90;;;;;;1881653;76;21123;-75
2021/10/30 09:58:35;;;;;;;15.55;9.50;;;9.70;99.90;;;;;;1874186;75;21061;-76
2021/10/30 10:01:01;;;;;;;14.40;8.88;;;9.70;99.90;;;;;;1875166;74;21082;-76
2021/10/30 10:03:27;;;;;;;13.35;9.40;;;9.60;99.90;;;;;;1880542;75;22587;-76
2021/10/30 10:05:53;;;;;;;13.25;8.85;;;9.50;99.90;;;;;;1876574;75;21511;-76
2021/10/30 10:08:20;;;;;;;15.85;9.43;;;9.40;99.90;;;;;;1871302;75;21083;-75
2021/10/30 10:10:46;;;;;;;16.17;10.00;;;9.40;99.90;;;;;;1876355;76;21091;-76
2021/10/30 10:13:12;;;;;;;14.58;9.15;;;9.70;99.90;;;;;;1868090;76;21272;-76
2021/10/30 10:15:39;;;;;;;12.45;8.88;;;9.60;99.90;;;;;;1870796;75;21087;-75
2021/10/30 10:18:06;;;;;;;12.35;9.15;;;9.70;99.90;;;;;;1857487;76;21077;-76
2021/10/30 10:20:32;;;;;;;12.07;8.85;;;9.90;99.90;;;;;;1876935;75;21603;-75
2021/10/30 10:22:58;;;;;;;16.40;8.50;;;9.90;99.90;;;;;;1866768;75;21544;-75
2021/10/30 10:25:24;;;;;;;13.55;9.65;;;9.90;99.90;;;;;;1860365;74;21149;-76
2021/10/30 10:27:50;;;;;;;15.20;9.45;;;9.90;99.90;;;;;;1879731;74;21503;-74
2021/10/30 10:30:17;;;;;;;12.75;8.85;;;9.90;99.90;;;;;;1868462;74;21509;-75
2021/10/30 10:32:43;;;;;;;28.75;9.35;;;9.90;99.90;;;;;;1859565;75;21080;-75
2021/10/30 10:35:09;;;;;;;11.93;9.33;;;9.90;99.90;;;;;;1867153;76;21092;-75
2021/10/30 10:37:35;;;;;;;16.48;10.23;;;9.90;99.90;;;;;;1877240;75;21149;-75
2021/10/30 10:40:03;;;;;;;17.45;10.78;;;9.90;99.90;;;;;;1880829;75;21066;-76
2021/10/30 10:42:29;;;;;;;13.50;9.03;;;9.90;99.90;;;;;;1835034;76;21455;-75
2021/10/30 10:44:55;;;;;;;18.32;10.05;;;10.00;99.90;;;;;;1816864;78;21772;-75
2021/10/30 10:47:21;;;;;;;14.20;9.50;;;9.90;99.90;;;;;;1874674;76;21500;-76
2021/10/30 10:49:49;;;;;;;12.40;9.70;;;9.90;99.90;;;;;;1872970;76;21516;-75
2021/10/30 10:52:17;;;;;;;17.65;9.73;;;9.80;99.90;;;;;;1865398;76;21089;-75
2021/10/30 10:54:43;;;;;;;10.72;9.05;;;9.90;99.90;;;;;;1872547;76;21092;-76
2021/10/30 10:57:09;;;;;;;14.20;9.03;;;9.80;99.90;;;;;;1871284;74;21229;-75
2021/10/30 10:59:35;;;;;;;16.70;10.00;;;9.90;99.90;;;;;;1875975;75;21084;-74
2021/10/30 11:02:01;;;;;;;14.90;9.55;;;10.00;99.90;;;;;;1881140;75;21087;-75
2021/10/30 11:04:27;;;;;;;14.78;9.20;;;10.00;99.90;;;;;;1867340;76;21079;-75
2021/10/30 11:06:53;;;;;;;13.10;9.38;;;10.10;99.90;;;;;;1857961;75;21227;-75
2021/10/30 11:09:20;;;;;;;14.07;9.50;;;10.10;99.90;;;;;;1864189;75;21085;-75
2021/10/30 11:11:46;;;;;;;22.62;10.45;;;10.10;99.90;;;;;;1875182;75;21079;-74
2021/10/30 11:14:13;;;;;;;19.67;9.88;;;10.00;99.90;;;;;;1877829;74;21515;-75
2021/10/30 11:16:39;;;;;;;14.95;9.15;;;10.00;99.90;;;;;;1869919;75;21060;-75
2021/10/30 11:19:07;;;;;;;18.00;9.65;;;10.10;99.90;;;;;;1879533;74;21153;-75
2021/10/30 11:21:33;;;;;;;17.20;9.38;;;10.20;99.90;;;;;;1869713;76;21592;-76
2021/10/30 11:24:00;;;;;;;18.20;9.78;;;10.30;99.90;;;;;;1858491;76;21089;-76
2021/10/30 11:26:29;;;;;;;10.72;8.90;;;10.30;99.90;;;;;;1880026;74;21519;-75
2021/10/30 11:28:55;;;;;;;11.12;9.23;;;10.20;99.90;;;;;;1873868;76;21084;-74
2021/10/30 11:31:22;;;;;;;18.10;10.40;;;10.10;99.90;;;;;;1858598;76;21143;-73
2021/10/30 11:33:48;;;;;;;16.52;11.33;;;10.10;99.90;;;;;;1877713;75;21237;-76
2021/10/30 11:36:14;;;;;;;17.25;9.35;;;10.10;99.90;;;;;;1887243;74;21074;-75
2021/10/30 11:38:40;;;;;;;16.27;9.68;;;10.10;99.90;;;;;;1857719;76;21237;-76
2021/10/30 11:41:06;;;;;;;16.67;10.05;;;10.30;99.90;;;;;;1864766;76;21139;-75
2021/10/30 11:43:32;;;;;;;14.93;10.32;;;10.50;99.90;;;;;;1862140;75;21088;-74
2021/10/30 11:45:58;;;;;;;13.22;9.75;;;10.30;99.90;;;;;;1872710;76;21140;-72
2021/10/30 11:48:25;;;;;;;19.00;9.28;;;10.30;99.90;;;;;;1863809;76;21049;-76
2021/10/30 11:53:35;;;;;;;72.62;42.80;;;10.30;99.90;;;;;;1865601;74;21138;-75
2021/10/30 11:56:07;;;;;;;35.55;21.10;;;10.30;99.90;;;;;;1876051;74;21137;-74
2021/10/30 11:58:29;;;;;;;17.37;13.48;;;10.20;99.90;;;;;;1878310;74;21080;-75
2021/10/30 12:00:55;;;;;;;34.53;22.42;;;10.20;99.90;;;;;;1883594;75;21080;-75
2021/10/30 12:03:21;;;;;;;30.65;19.48;;;10.40;99.90;;;;;;1870164;76;21076;-76
2021/10/30 12:05:47;;;;;;;22.32;16.23;;;10.40;99.90;;;;;;1887894;74;21245;-74
2021/10/30 12:08:13;;;;;;;22.37;12.23;;;10.40;99.90;;;;;;1873992;75;21161;-75
2021/10/30 12:10:39;;;;;;;21.73;14.58;;;10.40;99.90;;;;;;1890389;76;21157;-75
2021/10/30 12:13:06;;;;;;;18.73;12.37;;;10.20;99.90;;;;;;1872368;74;21066;-75
2021/10/30 12:15:32;;;;;;;15.05;11.03;;;10.20;99.90;;;;;;1869512;75;21484;-73
2021/10/30 12:17:58;;;;;;;23.27;13.00;;;10.10;99.90;;;;;;1873135;74;21569;-70
2021/10/30 12:20:24;;;;;;;22.45;12.70;;;9.90;99.90;;;;;;1885320;75;21433;-72
2021/10/30 12:22:50;;;;;;;23.30;12.10;;;9.90;99.90;;;;;;1873240;74;21092;-74
2021/10/30 12:25:17;;;;;;;20.65;12.40;;;9.80;99.90;;;;;;1871968;75;21076;-72
2021/10/30 12:27:43;;;;;;;16.20;12.25;;;9.80;99.90;;;;;;1884880;75;21110;-73
2021/10/30 12:30:09;;;;;;;19.40;11.68;;;9.70;99.90;;;;;;1875741;74;21087;-72
2021/10/30 12:32:35;;;;;;;18.82;12.33;;;9.60;99.90;;;;;;1875342;75;21076;-75
2021/10/30 12:35:01;;;;;;;21.12;12.55;;;9.50;99.90;;;;;;1883385;74;21165;-72